Terminal Aerodrome Forecast
Issued by NWS Shreveport, LA

Home | Current Version | Previous Version | Text Only | Print | Product List | Glossary On
Versions: 1 2 3 4 5 6 7 8 9 10 11 12 13
000
FTUS44 KSHV 282323
TAFELD
TAF
KELD 282323Z 2900/2924 12005KT P6SM FEW060
      TEMPO 2910/2914 BKN015
     FM291400 14010KT P6SM BKN010
      TEMPO 2914/2917 15012G20KT BKN025
     FM291700 16013G23KT P6SM SCT035 BKN250
     FM292100 17014G24KT P6SM SCT050 BKN250=

USA.gov is the U.S. government's official web portal to all federal, state and local government web resources and services.